sensor_id;sensor_type;location;lat;lon;timestamp;P1;durP1;ratioP1;P2;durP2;ratioP2
23826;SDS011;12094;50.822;4.376;2023-04-07T00:01:26;68.72;;;36.40;;
23826;SDS011;12094;50.822;4.376;2023-04-07T00:08:25;29.23;;;13.68;;
23826;SDS011;12094;50.822;4.376;2023-04-07T00:10:52;25.70;;;12.05;;
23826;SDS011;12094;50.822;4.376;2023-04-07T00:13:19;32.80;;;13.73;;
23826;SDS011;12094;50.822;4.376;2023-04-07T00:15:46;31.17;;;12.15;;
23826;SDS011;12094;50.822;4.376;2023-04-07T00:18:13;28.48;;;11.07;;
23826;SDS011;12094;50.822;4.376;2023-04-07T00:20:41;26.33;;;11.10;;
23826;SDS011;12094;50.822;4.376;2023-04-07T00:23:08;28.65;;;11.65;;
23826;SDS011;12094;50.822;4.376;2023-04-07T00:25:37;24.88;;;11.77;;
23826;SDS011;12094;50.822;4.376;2023-04-07T00:28:04;24.10;;;12.35;;
23826;SDS011;12094;50.822;4.376;2023-04-07T00:30:31;21.27;;;11.93;;
23826;SDS011;12094;50.822;4.376;2023-04-07T00:32:58;29.20;;;12.23;;
23826;SDS011;12094;50.822;4.376;2023-04-07T00:35:26;27.98;;;11.65;;
23826;SDS011;12094;50.822;4.376;2023-04-07T00:37:53;25.08;;;12.10;;
23826;SDS011;12094;50.822;4.376;2023-04-07T00:40:24;24.75;;;10.90;;
23826;SDS011;12094;50.822;4.376;2023-04-07T00:42:51;34.60;;;12.20;;
23826;SDS011;12094;50.822;4.376;2023-04-07T00:45:18;25.60;;;13.18;;
23826;SDS011;12094;50.822;4.376;2023-04-07T00:47:46;31.90;;;13.90;;
23826;SDS011;12094;50.822;4.376;2023-04-07T00:53:05;21.83;;;9.32;;
23826;SDS011;12094;50.822;4.376;2023-04-07T01:05:53;24.90;;;10.80;;
23826;SDS011;12094;50.822;4.376;2023-04-07T01:08:40;26.90;;;11.90;;
23826;SDS011;12094;50.822;4.376;2023-04-07T01:14:39;29.07;;;11.50;;
23826;SDS011;12094;50.822;4.376;2023-04-07T01:17:35;29.05;;;13.30;;
23826;SDS011;12094;50.822;4.376;2023-04-07T01:20:18;25.40;;;12.63;;
23826;SDS011;12094;50.822;4.376;2023-04-07T01:22:55;24.23;;;11.98;;
23826;SDS011;12094;50.822;4.376;2023-04-07T01:28:14;27.58;;;13.10;;
23826;SDS011;12094;50.822;4.376;2023-04-07T01:30:58;23.90;;;12.95;;
23826;SDS011;12094;50.822;4.376;2023-04-07T01:33:27;27.42;;;13.10;;
23826;SDS011;12094;50.822;4.376;2023-04-07T01:35:58;31.02;;;13.38;;
23826;SDS011;12094;50.822;4.376;2023-04-07T01:38:28;28.08;;;13.02;;
23826;SDS011;12094;50.822;4.376;2023-04-07T01:40:56;26.65;;;12.38;;
23826;SDS011;12094;50.822;4.376;2023-04-07T01:43:24;25.83;;;12.68;;
23826;SDS011;12094;50.822;4.376;2023-04-07T01:45:53;31.58;;;13.07;;
23826;SDS011;12094;50.822;4.376;2023-04-07T01:48:23;32.78;;;13.80;;
23826;SDS011;12094;50.822;4.376;2023-04-07T01:50:52;27.58;;;14.52;;
23826;SDS011;12094;50.822;4.376;2023-04-07T01:53:21;34.15;;;15.95;;
23826;SDS011;12094;50.822;4.376;2023-04-07T01:55:49;28.20;;;16.17;;
23826;SDS011;12094;50.822;4.376;2023-04-07T01:58:19;34.05;;;15.55;;
23826;SDS011;12094;50.822;4.376;2023-04-07T02:00:49;32.47;;;16.10;;
23826;SDS011;12094;50.822;4.376;2023-04-07T02:03:22;39.40;;;16.55;;
23826;SDS011;12094;50.822;4.376;2023-04-07T02:05:53;30.13;;;16.05;;
23826;SDS011;12094;50.822;4.376;2023-04-07T02:08:28;34.88;;;15.60;;
23826;SDS011;12094;50.822;4.376;2023-04-07T02:10:58;26.07;;;13.30;;
23826;SDS011;12094;50.822;4.376;2023-04-07T02:13:30;27.83;;;13.80;;
23826;SDS011;12094;50.822;4.376;2023-04-07T02:15:59;31.08;;;14.63;;
23826;SDS011;12094;50.822;4.376;2023-04-07T02:18:27;23.58;;;12.82;;
23826;SDS011;12094;50.822;4.376;2023-04-07T02:20:58;24.27;;;12.65;;
23826;SDS011;12094;50.822;4.376;2023-04-07T02:23:28;25.95;;;12.25;;
23826;SDS011;12094;50.822;4.376;2023-04-07T02:25:56;25.60;;;13.13;;
23826;SDS011;12094;50.822;4.376;2023-04-07T02:28:23;21.23;;;12.63;;
23826;SDS011;12094;50.822;4.376;2023-04-07T02:30:50;25.05;;;12.63;;
23826;SDS011;12094;50.822;4.376;2023-04-07T02:33:17;24.10;;;12.95;;
23826;SDS011;12094;50.822;4.376;2023-04-07T02:35:44;23.10;;;12.32;;
23826;SDS011;12094;50.822;4.376;2023-04-07T02:38:12;21.38;;;13.27;;
23826;SDS011;12094;50.822;4.376;2023-04-07T02:43:58;25.48;;;13.23;;
23826;SDS011;12094;50.822;4.376;2023-04-07T02:46:43;23.98;;;13.07;;
23826;SDS011;12094;50.822;4.376;2023-04-07T02:49:12;25.08;;;12.70;;
23826;SDS011;12094;50.822;4.376;2023-04-07T02:51:40;24.63;;;12.98;;
23826;SDS011;12094;50.822;4.376;2023-04-07T02:54:08;22.02;;;12.68;;
23826;SDS011;12094;50.822;4.376;2023-04-07T02:56:35;23.02;;;12.90;;
23826;SDS011;12094;50.822;4.376;2023-04-07T02:59:02;25.90;;;12.80;;
23826;SDS011;12094;50.822;4.376;2023-04-07T03:01:35;24.55;;;13.38;;
23826;SDS011;12094;50.822;4.376;2023-04-07T03:04:02;26.13;;;14.07;;
23826;SDS011;12094;50.822;4.376;2023-04-07T03:06:30;21.75;;;12.82;;
23826;SDS011;12094;50.822;4.376;2023-04-07T03:09:13;28.38;;;12.95;;
23826;SDS011;12094;50.822;4.376;2023-04-07T03:11:40;33.78;;;14.23;;
23826;SDS011;12094;50.822;4.376;2023-04-07T03:14:08;29.92;;;13.32;;
23826;SDS011;12094;50.822;4.376;2023-04-07T03:16:43;31.80;;;14.18;;
23826;SDS011;12094;50.822;4.376;2023-04-07T03:19:12;30.88;;;13.70;;
23826;SDS011;12094;50.822;4.376;2023-04-07T03:21:42;30.55;;;13.80;;
23826;SDS011;12094;50.822;4.376;2023-04-07T03:24:10;33.17;;;14.32;;
23826;SDS011;12094;50.822;4.376;2023-04-07T03:26:37;34.55;;;14.15;;
23826;SDS011;12094;50.822;4.376;2023-04-07T03:29:19;37.03;;;14.77;;
23826;SDS011;12094;50.822;4.376;2023-04-07T03:31:46;32.22;;;13.60;;
23826;SDS011;12094;50.822;4.376;2023-04-07T03:34:16;28.33;;;12.95;;
23826;SDS011;12094;50.822;4.376;2023-04-07T03:36:43;35.75;;;13.82;;
23826;SDS011;12094;50.822;4.376;2023-04-07T03:39:10;25.70;;;12.20;;
23826;SDS011;12094;50.822;4.376;2023-04-07T03:41:38;31.42;;;13.40;;
23826;SDS011;12094;50.822;4.376;2023-04-07T03:44:06;33.38;;;14.30;;
23826;SDS011;12094;50.822;4.376;2023-04-07T03:46:38;33.35;;;14.02;;
23826;SDS011;12094;50.822;4.376;2023-04-07T03:49:06;31.45;;;13.75;;
23826;SDS011;12094;50.822;4.376;2023-04-07T03:51:33;38.70;;;14.77;;
23826;SDS011;12094;50.822;4.376;2023-04-07T03:54:02;39.47;;;15.95;;
23826;SDS011;12094;50.822;4.376;2023-04-07T03:56:34;38.97;;;15.38;;
23826;SDS011;12094;50.822;4.376;2023-04-07T03:59:02;40.47;;;15.35;;
23826;SDS011;12094;50.822;4.376;2023-04-07T04:01:38;42.67;;;15.55;;
23826;SDS011;12094;50.822;4.376;2023-04-07T04:04:11;44.00;;;15.50;;
23826;SDS011;12094;50.822;4.376;2023-04-07T04:06:39;44.33;;;16.38;;
23826;SDS011;12094;50.822;4.376;2023-04-07T04:09:21;53.28;;;17.50;;
23826;SDS011;12094;50.822;4.376;2023-04-07T04:11:48;48.00;;;16.58;;
23826;SDS011;12094;50.822;4.376;2023-04-07T04:14:17;58.85;;;19.73;;
23826;SDS011;12094;50.822;4.376;2023-04-07T04:16:53;56.97;;;18.63;;
23826;SDS011;12094;50.822;4.376;2023-04-07T04:19:35;53.92;;;18.67;;
23826;SDS011;12094;50.822;4.376;2023-04-07T04:22:10;63.50;;;20.08;;
23826;SDS011;12094;50.822;4.376;2023-04-07T04:24:46;61.47;;;20.08;;
23826;SDS011;12094;50.822;4.376;2023-04-07T04:27:14;62.42;;;21.35;;
23826;SDS011;12094;50.822;4.376;2023-04-07T04:32:21;64.95;;;21.08;;
23826;SDS011;12094;50.822;4.376;2023-04-07T04:34:48;63.47;;;20.50;;
23826;SDS011;12094;50.822;4.376;2023-04-07T04:37:16;63.75;;;20.13;;
23826;SDS011;12094;50.822;4.376;2023-04-07T04:39:44;54.45;;;19.42;;
23826;SDS011;12094;50.822;4.376;2023-04-07T04:42:16;56.30;;;20.05;;
23826;SDS011;12094;50.822;4.376;2023-04-07T04:44:48;57.58;;;20.02;;
23826;SDS011;12094;50.822;4.376;2023-04-07T04:47:16;67.68;;;19.23;;
23826;SDS011;12094;50.822;4.376;2023-04-07T04:49:45;58.88;;;20.98;;
23826;SDS011;12094;50.822;4.376;2023-04-07T04:52:12;61.78;;;20.98;;
23826;SDS011;12094;50.822;4.376;2023-04-07T04:54:44;61.83;;;22.30;;
23826;SDS011;12094;50.822;4.376;2023-04-07T04:57:11;63.85;;;22.23;;
23826;SDS011;12094;50.822;4.376;2023-04-07T04:59:39;63.13;;;23.10;;
23826;SDS011;12094;50.822;4.376;2023-04-07T05:02:09;75.10;;;23.38;;
23826;SDS011;12094;50.822;4.376;2023-04-07T05:04:39;68.28;;;22.58;;
23826;SDS011;12094;50.822;4.376;2023-04-07T05:07:26;65.15;;;23.02;;
23826;SDS011;12094;50.822;4.376;2023-04-07T05:09:54;66.65;;;22.30;;
23826;SDS011;12094;50.822;4.376;2023-04-07T05:12:25;53.85;;;18.50;;
23826;SDS011;12094;50.822;4.376;2023-04-07T05:15:00;65.55;;;22.45;;
23826;SDS011;12094;50.822;4.376;2023-04-07T05:17:35;61.03;;;21.38;;
23826;SDS011;12094;50.822;4.376;2023-04-07T05:20:08;58.95;;;21.65;;
23826;SDS011;12094;50.822;4.376;2023-04-07T05:22:45;58.63;;;21.42;;
23826;SDS011;12094;50.822;4.376;2023-04-07T05:25:13;55.33;;;21.33;;
23826;SDS011;12094;50.822;4.376;2023-04-07T05:27:43;60.50;;;21.30;;
23826;SDS011;12094;50.822;4.376;2023-04-07T05:30:14;58.38;;;21.50;;
23826;SDS011;12094;50.822;4.376;2023-04-07T05:32:42;58.20;;;21.23;;
23826;SDS011;12094;50.822;4.376;2023-04-07T05:35:38;61.63;;;22.17;;
23826;SDS011;12094;50.822;4.376;2023-04-07T05:38:06;60.95;;;22.23;;
23826;SDS011;12094;50.822;4.376;2023-04-07T05:40:33;66.55;;;22.60;;
23826;SDS011;12094;50.822;4.376;2023-04-07T05:43:06;64.70;;;25.88;;
23826;SDS011;12094;50.822;4.376;2023-04-07T05:45:33;65.13;;;24.40;;
23826;SDS011;12094;50.822;4.376;2023-04-07T05:48:00;62.15;;;21.13;;
23826;SDS011;12094;50.822;4.376;2023-04-07T05:50:38;63.17;;;20.80;;
23826;SDS011;12094;50.822;4.376;2023-04-07T05:53:10;51.78;;;19.85;;
23826;SDS011;12094;50.822;4.376;2023-04-07T05:55:43;48.58;;;20.13;;
23826;SDS011;12094;50.822;4.376;2023-04-07T05:58:31;53.22;;;21.38;;
23826;SDS011;12094;50.822;4.376;2023-04-07T06:01:01;51.50;;;21.15;;
23826;SDS011;12094;50.822;4.376;2023-04-07T06:09:07;51.38;;;20.60;;
23826;SDS011;12094;50.822;4.376;2023-04-07T06:11:35;53.40;;;21.42;;
23826;SDS011;12094;50.822;4.376;2023-04-07T06:14:02;54.88;;;20.42;;
23826;SDS011;12094;50.822;4.376;2023-04-07T06:16:40;51.50;;;20.50;;
23826;SDS011;12094;50.822;4.376;2023-04-07T06:21:41;50.60;;;21.95;;
23826;SDS011;12094;50.822;4.376;2023-04-07T06:24:10;46.83;;;19.60;;
23826;SDS011;12094;50.822;4.376;2023-04-07T06:26:45;45.85;;;20.95;;
23826;SDS011;12094;50.822;4.376;2023-04-07T06:29:14;59.33;;;24.43;;
23826;SDS011;12094;50.822;4.376;2023-04-07T06:31:55;52.33;;;20.40;;
23826;SDS011;12094;50.822;4.376;2023-04-07T06:37:03;52.83;;;21.77;;
23826;SDS011;12094;50.822;4.376;2023-04-07T06:39:40;52.13;;;21.20;;
23826;SDS011;12094;50.822;4.376;2023-04-07T06:42:07;50.15;;;20.75;;
23826;SDS011;12094;50.822;4.376;2023-04-07T06:44:46;55.28;;;20.10;;
23826;SDS011;12094;50.822;4.376;2023-04-07T06:47:22;36.65;;;17.42;;
23826;SDS011;12094;50.822;4.376;2023-04-07T06:49:52;37.53;;;16.13;;
23826;SDS011;12094;50.822;4.376;2023-04-07T06:52:26;36.65;;;17.85;;
23826;SDS011;12094;50.822;4.376;2023-04-07T06:54:54;44.17;;;17.75;;
23826;SDS011;12094;50.822;4.376;2023-04-07T06:57:26;36.90;;;16.48;;
23826;SDS011;12094;50.822;4.376;2023-04-07T06:59:54;51.00;;;18.75;;
23826;SDS011;12094;50.822;4.376;2023-04-07T07:02:24;36.90;;;16.17;;
23826;SDS011;12094;50.822;4.376;2023-04-07T07:04:58;35.97;;;16.45;;
23826;SDS011;12094;50.822;4.376;2023-04-07T07:07:25;35.92;;;16.95;;
23826;SDS011;12094;50.822;4.376;2023-04-07T07:09:53;39.92;;;17.05;;
23826;SDS011;12094;50.822;4.376;2023-04-07T07:12:20;37.42;;;17.33;;
23826;SDS011;12094;50.822;4.376;2023-04-07T07:14:51;36.47;;;18.55;;
23826;SDS011;12094;50.822;4.376;2023-04-07T07:17:19;38.22;;;17.73;;
23826;SDS011;12094;50.822;4.376;2023-04-07T07:19:46;35.90;;;19.08;;
23826;SDS011;12094;50.822;4.376;2023-04-07T07:22:12;35.28;;;17.90;;
23826;SDS011;12094;50.822;4.376;2023-04-07T07:24:40;35.67;;;17.73;;
23826;SDS011;12094;50.822;4.376;2023-04-07T07:27:07;31.95;;;17.42;;
23826;SDS011;12094;50.822;4.376;2023-04-07T07:29:38;34.50;;;18.13;;
23826;SDS011;12094;50.822;4.376;2023-04-07T07:32:10;38.70;;;18.17;;
23826;SDS011;12094;50.822;4.376;2023-04-07T07:34:44;38.35;;;17.50;;
23826;SDS011;12094;50.822;4.376;2023-04-07T07:37:13;30.27;;;13.27;;
23826;SDS011;12094;50.822;4.376;2023-04-07T07:39:41;34.58;;;16.33;;
23826;SDS011;12094;50.822;4.376;2023-04-07T07:42:13;27.77;;;13.45;;
23826;SDS011;12094;50.822;4.376;2023-04-07T07:44:40;22.55;;;11.00;;
23826;SDS011;12094;50.822;4.376;2023-04-07T07:47:07;21.25;;;9.13;;
23826;SDS011;12094;50.822;4.376;2023-04-07T07:49:34;23.02;;;10.70;;
23826;SDS011;12094;50.822;4.376;2023-04-07T07:52:02;18.27;;;10.10;;
23826;SDS011;12094;50.822;4.376;2023-04-07T07:54:29;24.35;;;11.85;;
23826;SDS011;12094;50.822;4.376;2023-04-07T07:56:56;17.05;;;9.98;;
23826;SDS011;12094;50.822;4.376;2023-04-07T07:59:23;22.88;;;10.48;;
23826;SDS011;12094;50.822;4.376;2023-04-07T08:01:50;26.02;;;12.65;;
23826;SDS011;12094;50.822;4.376;2023-04-07T08:04:17;21.88;;;11.43;;
23826;SDS011;12094;50.822;4.376;2023-04-07T08:06:45;25.27;;;12.45;;
23826;SDS011;12094;50.822;4.376;2023-04-07T08:09:14;20.95;;;11.82;;
23826;SDS011;12094;50.822;4.376;2023-04-07T08:11:41;27.80;;;11.93;;
23826;SDS011;12094;50.822;4.376;2023-04-07T08:14:08;19.55;;;10.70;;
23826;SDS011;12094;50.822;4.376;2023-04-07T08:16:36;15.55;;;7.30;;
23826;SDS011;12094;50.822;4.376;2023-04-07T08:19:03;17.80;;;7.93;;
23826;SDS011;12094;50.822;4.376;2023-04-07T08:21:32;18.55;;;8.30;;
23826;SDS011;12094;50.822;4.376;2023-04-07T08:23:59;16.95;;;7.95;;
23826;SDS011;12094;50.822;4.376;2023-04-07T08:26:26;18.27;;;8.00;;
23826;SDS011;12094;50.822;4.376;2023-04-07T08:28:53;18.33;;;8.20;;
23826;SDS011;12094;50.822;4.376;2023-04-07T08:31:21;17.55;;;8.05;;
23826;SDS011;12094;50.822;4.376;2023-04-07T08:33:48;14.02;;;7.30;;
23826;SDS011;12094;50.822;4.376;2023-04-07T08:36:19;14.07;;;6.93;;
23826;SDS011;12094;50.822;4.376;2023-04-07T08:38:47;18.80;;;7.88;;
23826;SDS011;12094;50.822;4.376;2023-04-07T08:41:19;13.88;;;5.82;;
23826;SDS011;12094;50.822;4.376;2023-04-07T08:43:54;12.40;;;6.50;;
23826;SDS011;12094;50.822;4.376;2023-04-07T08:46:23;22.23;;;7.50;;
23826;SDS011;12094;50.822;4.376;2023-04-07T08:48:52;12.80;;;6.65;;
23826;SDS011;12094;50.822;4.376;2023-04-07T08:51:26;12.10;;;6.95;;
23826;SDS011;12094;50.822;4.376;2023-04-07T08:54:05;16.65;;;7.18;;
23826;SDS011;12094;50.822;4.376;2023-04-07T08:56:38;14.63;;;7.18;;
23826;SDS011;12094;50.822;4.376;2023-04-07T08:59:09;21.10;;;7.47;;
23826;SDS011;12094;50.822;4.376;2023-04-07T09:02:16;17.55;;;7.00;;
23826;SDS011;12094;50.822;4.376;2023-04-07T09:04:44;20.83;;;7.88;;
23826;SDS011;12094;50.822;4.376;2023-04-07T09:09:42;15.43;;;6.97;;
23826;SDS011;12094;50.822;4.376;2023-04-07T09:12:09;15.90;;;5.75;;
23826;SDS011;12094;50.822;4.376;2023-04-07T09:14:37;9.77;;;5.00;;
23826;SDS011;12094;50.822;4.376;2023-04-07T09:17:05;15.10;;;6.22;;
23826;SDS011;12094;50.822;4.376;2023-04-07T09:19:32;10.88;;;5.32;;
23826;SDS011;12094;50.822;4.376;2023-04-07T09:21:59;9.88;;;4.32;;
23826;SDS011;12094;50.822;4.376;2023-04-07T09:24:27;10.45;;;4.68;;
23826;SDS011;12094;50.822;4.376;2023-04-07T09:27:10;13.82;;;4.85;;
23826;SDS011;12094;50.822;4.376;2023-04-07T09:29:42;12.63;;;4.95;;
23826;SDS011;12094;50.822;4.376;2023-04-07T09:32:11;8.20;;;4.22;;
23826;SDS011;12094;50.822;4.376;2023-04-07T09:35:12;8.32;;;3.65;;
23826;SDS011;12094;50.822;4.376;2023-04-07T09:37:39;9.00;;;3.90;;
23826;SDS011;12094;50.822;4.376;2023-04-07T09:40:07;8.18;;;3.75;;
23826;SDS011;12094;50.822;4.376;2023-04-07T09:42:43;6.32;;;3.25;;
23826;SDS011;12094;50.822;4.376;2023-04-07T09:45:11;5.53;;;2.20;;
23826;SDS011;12094;50.822;4.376;2023-04-07T09:47:58;7.68;;;2.05;;
23826;SDS011;12094;50.822;4.376;2023-04-07T09:53:04;10.57;;;2.40;;
23826;SDS011;12094;50.822;4.376;2023-04-07T09:55:31;7.05;;;3.00;;
23826;SDS011;12094;50.822;4.376;2023-04-07T09:58:00;10.30;;;2.45;;
23826;SDS011;12094;50.822;4.376;2023-04-07T10:00:29;7.47;;;2.53;;
23826;SDS011;12094;50.822;4.376;2023-04-07T10:02:56;4.85;;;2.10;;
23826;SDS011;12094;50.822;4.376;2023-04-07T10:05:24;10.68;;;3.05;;
23826;SDS011;12094;50.822;4.376;2023-04-07T10:07:51;11.30;;;2.33;;
23826;SDS011;12094;50.822;4.376;2023-04-07T10:10:20;7.75;;;1.98;;
23826;SDS011;12094;50.822;4.376;2023-04-07T10:12:48;4.57;;;1.50;;
23826;SDS011;12094;50.822;4.376;2023-04-07T10:15:18;3.80;;;1.52;;
23826;SDS011;12094;50.822;4.376;2023-04-07T10:17:46;4.18;;;1.60;;
23826;SDS011;12094;50.822;4.376;2023-04-07T10:20:16;6.82;;;2.30;;
23826;SDS011;12094;50.822;4.376;2023-04-07T10:22:47;9.25;;;2.05;;
23826;SDS011;12094;50.822;4.376;2023-04-07T10:25:17;4.75;;;2.20;;
23826;SDS011;12094;50.822;4.376;2023-04-07T10:27:58;6.80;;;2.22;;
23826;SDS011;12094;50.822;4.376;2023-04-07T10:30:31;8.75;;;2.15;;
23826;SDS011;12094;50.822;4.376;2023-04-07T10:32:59;8.95;;;2.67;;
23826;SDS011;12094;50.822;4.376;2023-04-07T10:35:26;6.20;;;2.47;;
23826;SDS011;12094;50.822;4.376;2023-04-07T10:40:39;5.97;;;3.13;;
23826;SDS011;12094;50.822;4.376;2023-04-07T10:43:07;8.85;;;3.33;;
23826;SDS011;12094;50.822;4.376;2023-04-07T10:48:19;6.85;;;3.63;;
23826;SDS011;12094;50.822;4.376;2023-04-07T10:53:30;5.45;;;2.40;;
23826;SDS011;12094;50.822;4.376;2023-04-07T10:55:58;9.43;;;3.40;;
23826;SDS011;12094;50.822;4.376;2023-04-07T10:58:26;11.02;;;3.40;;
23826;SDS011;12094;50.822;4.376;2023-04-07T11:03:37;7.78;;;2.60;;
23826;SDS011;12094;50.822;4.376;2023-04-07T11:06:11;8.93;;;2.55;;
23826;SDS011;12094;50.822;4.376;2023-04-07T11:08:41;11.00;;;3.10;;
23826;SDS011;12094;50.822;4.376;2023-04-07T11:11:14;14.13;;;2.95;;
23826;SDS011;12094;50.822;4.376;2023-04-07T11:13:55;10.25;;;3.10;;
23826;SDS011;12094;50.822;4.376;2023-04-07T11:16:38;9.52;;;4.10;;
23826;SDS011;12094;50.822;4.376;2023-04-07T11:19:07;11.15;;;3.95;;
23826;SDS011;12094;50.822;4.376;2023-04-07T11:21:35;11.30;;;4.15;;
23826;SDS011;12094;50.822;4.376;2023-04-07T11:27:00;8.82;;;4.32;;
23826;SDS011;12094;50.822;4.376;2023-04-07T11:29:27;8.15;;;3.60;;
23826;SDS011;12094;50.822;4.376;2023-04-07T11:31:57;13.15;;;3.50;;
23826;SDS011;12094;50.822;4.376;2023-04-07T11:34:30;11.52;;;3.00;;
23826;SDS011;12094;50.822;4.376;2023-04-07T11:39:55;10.93;;;3.42;;
23826;SDS011;12094;50.822;4.376;2023-04-07T11:42:33;10.50;;;3.15;;
23826;SDS011;12094;50.822;4.376;2023-04-07T11:45:05;8.48;;;2.60;;
23826;SDS011;12094;50.822;4.376;2023-04-07T11:47:41;9.43;;;3.80;;
23826;SDS011;12094;50.822;4.376;2023-04-07T11:50:09;12.25;;;4.32;;
23826;SDS011;12094;50.822;4.376;2023-04-07T11:52:46;37.72;;;12.90;;
23826;SDS011;12094;50.822;4.376;2023-04-07T11:55:16;11.18;;;4.20;;
23826;SDS011;12094;50.822;4.376;2023-04-07T11:57:52;12.73;;;3.95;;
23826;SDS011;12094;50.822;4.376;2023-04-07T12:00:21;9.65;;;4.18;;
23826;SDS011;12094;50.822;4.376;2023-04-07T12:02:48;17.23;;;4.40;;
23826;SDS011;12094;50.822;4.376;2023-04-07T12:05:16;14.63;;;4.97;;
23826;SDS011;12094;50.822;4.376;2023-04-07T12:07:52;11.25;;;4.88;;
23826;SDS011;12094;50.822;4.376;2023-04-07T12:10:22;14.75;;;4.95;;
23826;SDS011;12094;50.822;4.376;2023-04-07T12:12:54;12.70;;;4.82;;
23826;SDS011;12094;50.822;4.376;2023-04-07T12:15:24;12.85;;;4.95;;
23826;SDS011;12094;50.822;4.376;2023-04-07T12:17:52;11.00;;;4.40;;
23826;SDS011;12094;50.822;4.376;2023-04-07T12:20:20;11.98;;;4.75;;
23826;SDS011;12094;50.822;4.376;2023-04-07T12:22:47;11.43;;;3.38;;
23826;SDS011;12094;50.822;4.376;2023-04-07T12:27:47;14.75;;;2.85;;
23826;SDS011;12094;50.822;4.376;2023-04-07T12:30:16;12.05;;;3.47;;
23826;SDS011;12094;50.822;4.376;2023-04-07T12:32:43;11.70;;;4.45;;
23826;SDS011;12094;50.822;4.376;2023-04-07T12:35:10;14.50;;;3.67;;
23826;SDS011;12094;50.822;4.376;2023-04-07T12:37:38;11.07;;;4.10;;
23826;SDS011;12094;50.822;4.376;2023-04-07T12:40:05;12.18;;;4.05;;
23826;SDS011;12094;50.822;4.376;2023-04-07T12:42:34;9.55;;;3.53;;
23826;SDS011;12094;50.822;4.376;2023-04-07T12:45:06;11.50;;;3.30;;
23826;SDS011;12094;50.822;4.376;2023-04-07T12:47:35;12.50;;;3.67;;
23826;SDS011;12094;50.822;4.376;2023-04-07T12:50:02;8.02;;;3.53;;
23826;SDS011;12094;50.822;4.376;2023-04-07T12:52:29;11.30;;;3.95;;
23826;SDS011;12094;50.822;4.376;2023-04-07T12:54:57;8.95;;;3.63;;
23826;SDS011;12094;50.822;4.376;2023-04-07T12:57:29;12.50;;;4.18;;
23826;SDS011;12094;50.822;4.376;2023-04-07T12:59:56;10.35;;;4.45;;
23826;SDS011;12094;50.822;4.376;2023-04-07T13:02:26;11.02;;;4.18;;
23826;SDS011;12094;50.822;4.376;2023-04-07T13:04:54;10.20;;;4.22;;
23826;SDS011;12094;50.822;4.376;2023-04-07T13:07:21;14.30;;;4.40;;
23826;SDS011;12094;50.822;4.376;2023-04-07T13:09:48;9.25;;;4.20;;
23826;SDS011;12094;50.822;4.376;2023-04-07T13:12:15;14.73;;;4.68;;
23826;SDS011;12094;50.822;4.376;2023-04-07T13:14:42;12.23;;;3.35;;
23826;SDS011;12094;50.822;4.376;2023-04-07T13:19:55;8.23;;;2.80;;
23826;SDS011;12094;50.822;4.376;2023-04-07T13:22:22;11.15;;;3.38;;
23826;SDS011;12094;50.822;4.376;2023-04-07T13:24:50;13.32;;;3.00;;
23826;SDS011;12094;50.822;4.376;2023-04-07T13:27:17;8.75;;;3.72;;
23826;SDS011;12094;50.822;4.376;2023-04-07T13:29:45;9.98;;;3.80;;
23826;SDS011;12094;50.822;4.376;2023-04-07T13:32:12;13.13;;;4.00;;
23826;SDS011;12094;50.822;4.376;2023-04-07T13:34:41;11.73;;;3.78;;
23826;SDS011;12094;50.822;4.376;2023-04-07T13:37:11;13.80;;;3.70;;
23826;SDS011;12094;50.822;4.376;2023-04-07T13:39:39;12.95;;;3.30;;
23826;SDS011;12094;50.822;4.376;2023-04-07T13:42:06;10.20;;;3.47;;
23826;SDS011;12094;50.822;4.376;2023-04-07T13:44:38;11.27;;;3.33;;
23826;SDS011;12094;50.822;4.376;2023-04-07T13:47:05;12.10;;;3.10;;
23826;SDS011;12094;50.822;4.376;2023-04-07T13:49:33;5.55;;;2.70;;
23826;SDS011;12094;50.822;4.376;2023-04-07T13:52:00;6.07;;;2.25;;
23826;SDS011;12094;50.822;4.376;2023-04-07T13:54:27;10.85;;;2.95;;
23826;SDS011;12094;50.822;4.376;2023-04-07T13:59:52;8.38;;;3.40;;
23826;SDS011;12094;50.822;4.376;2023-04-07T14:02:22;7.03;;;2.92;;
23826;SDS011;12094;50.822;4.376;2023-04-07T14:04:55;9.63;;;3.20;;
23826;SDS011;12094;50.822;4.376;2023-04-07T14:07:23;9.60;;;3.13;;
23826;SDS011;12094;50.822;4.376;2023-04-07T14:09:50;8.82;;;2.90;;
23826;SDS011;12094;50.822;4.376;2023-04-07T14:12:17;8.82;;;3.22;;
23826;SDS011;12094;50.822;4.376;2023-04-07T14:14:51;12.27;;;3.08;;
23826;SDS011;12094;50.822;4.376;2023-04-07T14:17:20;7.25;;;2.92;;
23826;SDS011;12094;50.822;4.376;2023-04-07T14:19:47;14.10;;;3.00;;
23826;SDS011;12094;50.822;4.376;2023-04-07T14:22:17;8.50;;;2.83;;
23826;SDS011;12094;50.822;4.376;2023-04-07T14:24:47;9.93;;;3.30;;
23826;SDS011;12094;50.822;4.376;2023-04-07T14:27:14;8.68;;;3.15;;
23826;SDS011;12094;50.822;4.376;2023-04-07T14:29:47;11.98;;;3.70;;
23826;SDS011;12094;50.822;4.376;2023-04-07T14:32:16;8.38;;;3.20;;
23826;SDS011;12094;50.822;4.376;2023-04-07T14:34:44;8.80;;;3.65;;
23826;SDS011;12094;50.822;4.376;2023-04-07T14:37:29;10.65;;;4.28;;
23826;SDS011;12094;50.822;4.376;2023-04-07T14:39:58;15.23;;;3.90;;
23826;SDS011;12094;50.822;4.376;2023-04-07T14:42:30;16.02;;;4.20;;
23826;SDS011;12094;50.822;4.376;2023-04-07T14:44:58;11.32;;;4.85;;
23826;SDS011;12094;50.822;4.376;2023-04-07T14:47:29;16.38;;;4.80;;
23826;SDS011;12094;50.822;4.376;2023-04-07T14:49:58;13.88;;;4.70;;
23826;SDS011;12094;50.822;4.376;2023-04-07T14:52:25;9.68;;;4.07;;
23826;SDS011;12094;50.822;4.376;2023-04-07T14:54:55;10.77;;;3.90;;
23826;SDS011;12094;50.822;4.376;2023-04-07T14:57:25;11.82;;;3.92;;
23826;SDS011;12094;50.822;4.376;2023-04-07T14:59:52;8.70;;;3.85;;
23826;SDS011;12094;50.822;4.376;2023-04-07T15:02:19;8.27;;;2.95;;
23826;SDS011;12094;50.822;4.376;2023-04-07T15:04:48;5.03;;;2.85;;
23826;SDS011;12094;50.822;4.376;2023-04-07T15:07:17;6.80;;;2.75;;
23826;SDS011;12094;50.822;4.376;2023-04-07T15:09:46;6.50;;;2.40;;
23826;SDS011;12094;50.822;4.376;2023-04-07T15:12:13;10.65;;;2.45;;
23826;SDS011;12094;50.822;4.376;2023-04-07T15:14:42;101.82;;;48.17;;
23826;SDS011;12094;50.822;4.376;2023-04-07T15:17:13;8.20;;;2.67;;
23826;SDS011;12094;50.822;4.376;2023-04-07T15:19:40;6.97;;;2.40;;
23826;SDS011;12094;50.822;4.376;2023-04-07T15:22:09;5.03;;;2.30;;
23826;SDS011;12094;50.822;4.376;2023-04-07T15:24:45;12.30;;;3.22;;
23826;SDS011;12094;50.822;4.376;2023-04-07T15:27:13;10.02;;;2.38;;
23826;SDS011;12094;50.822;4.376;2023-04-07T15:29:50;7.10;;;2.28;;
23826;SDS011;12094;50.822;4.376;2023-04-07T15:32:17;6.93;;;2.50;;
23826;SDS011;12094;50.822;4.376;2023-04-07T15:34:45;14.20;;;3.00;;
23826;SDS011;12094;50.822;4.376;2023-04-07T15:37:12;8.52;;;3.05;;
23826;SDS011;12094;50.822;4.376;2023-04-07T15:39:39;6.05;;;2.95;;
23826;SDS011;12094;50.822;4.376;2023-04-07T15:42:07;9.45;;;3.45;;
23826;SDS011;12094;50.822;4.376;2023-04-07T15:44:40;22.05;;;9.00;;
23826;SDS011;12094;50.822;4.376;2023-04-07T15:47:47;18.63;;;6.25;;
23826;SDS011;12094;50.822;4.376;2023-04-07T15:50:28;9.77;;;3.08;;
23826;SDS011;12094;50.822;4.376;2023-04-07T15:52:56;9.02;;;3.63;;
23826;SDS011;12094;50.822;4.376;2023-04-07T15:55:25;7.20;;;3.47;;
23826;SDS011;12094;50.822;4.376;2023-04-07T15:57:53;9.70;;;3.05;;
23826;SDS011;12094;50.822;4.376;2023-04-07T16:00:21;5.70;;;2.75;;